createdAt,value
2019-05-09T00:00:23.325Z,7.77
2019-05-09T00:01:23.552Z,7.75
2019-05-09T00:02:24.179Z,7.75
2019-05-09T00:03:21.523Z,7.82
2019-05-09T00:04:23.090Z,7.84
2019-05-09T00:05:23.291Z,7.89
2019-05-09T00:06:23.775Z,7.92
2019-05-09T00:07:23.323Z,7.97
2019-05-09T00:08:23.092Z,8.00
2019-05-09T00:09:23.185Z,7.99
2019-05-09T00:10:37.544Z,7.93
2019-05-09T00:11:21.649Z,8.04
2019-05-09T00:12:23.404Z,7.94
2019-05-09T00:13:23.776Z,7.85
2019-05-09T00:14:23.767Z,7.85
2019-05-09T00:15:21.611Z,7.80
2019-05-09T00:16:23.466Z,7.70
2019-05-09T00:17:23.247Z,7.69
2019-05-09T00:18:23.307Z,7.76
2019-05-09T00:19:23.701Z,7.71
2019-05-09T00:20:23.812Z,7.75
2019-05-09T00:21:23.790Z,7.76
2019-05-09T00:22:23.899Z,7.76
2019-05-09T00:23:23.845Z,7.84
2019-05-09T00:24:23.800Z,7.79
2019-05-09T00:25:23.543Z,7.75
2019-05-09T00:26:23.554Z,7.79
2019-05-09T00:27:23.153Z,7.86
2019-05-09T00:28:23.568Z,7.83
2019-05-09T00:29:21.805Z,7.74
2019-05-09T00:30:23.168Z,7.78
2019-05-09T00:31:23.791Z,7.75
2019-05-09T00:32:23.790Z,7.68
2019-05-09T00:33:23.539Z,7.72
2019-05-09T00:34:23.411Z,7.76
2019-05-09T00:35:23.377Z,7.69
2019-05-09T00:36:23.238Z,7.65
2019-05-09T00:37:23.808Z,7.59
2019-05-09T00:38:23.833Z,7.51
2019-05-09T00:39:23.608Z,7.47
2019-05-09T00:40:23.706Z,7.49
2019-05-09T00:41:23.772Z,7.50
2019-05-09T00:42:23.983Z,7.52
2019-05-09T00:43:23.681Z,7.53
2019-05-09T00:44:23.243Z,7.49
2019-05-09T00:45:23.782Z,7.42
2019-05-09T00:46:23.637Z,7.37
2019-05-09T00:47:23.853Z,7.38
2019-05-09T00:48:23.072Z,7.44
2019-05-09T00:49:23.555Z,7.47
2019-05-09T00:50:23.539Z,7.45
2019-05-09T00:51:23.293Z,7.48
2019-05-09T00:52:23.466Z,7.47
2019-05-09T00:53:23.219Z,7.45
2019-05-09T00:54:23.916Z,7.48
2019-05-09T00:55:23.744Z,7.55
2019-05-09T00:56:23.751Z,7.50
2019-05-09T00:57:23.025Z,7.44
2019-05-09T00:58:24.047Z,7.42
2019-05-09T00:59:23.985Z,7.59
2019-05-09T01:00:24.109Z,7.63
2019-05-09T01:01:23.739Z,7.65
2019-05-09T01:02:23.543Z,7.67
2019-05-09T01:03:23.420Z,7.64
2019-05-09T01:04:23.962Z,7.62
2019-05-09T01:05:23.774Z,7.60
2019-05-09T01:06:23.782Z,7.59
2019-05-09T01:07:23.256Z,7.49
2019-05-09T01:08:24.065Z,7.40
2019-05-09T01:09:21.468Z,7.44
2019-05-09T01:10:23.532Z,7.49
2019-05-09T01:11:23.973Z,7.47
2019-05-09T01:12:23.528Z,7.48
2019-05-09T01:13:23.187Z,7.49
2019-05-09T01:14:23.435Z,7.46
2019-05-09T01:15:23.821Z,7.45
2019-05-09T01:16:23.906Z,7.45
2019-05-09T01:17:23.924Z,7.38
2019-05-09T01:18:23.636Z,7.38
2019-05-09T01:19:23.296Z,7.51
2019-05-09T01:20:24.015Z,7.48
2019-05-09T01:21:23.792Z,7.39
2019-05-09T01:22:23.585Z,7.49
2019-05-09T01:23:23.375Z,7.48
2019-05-09T01:24:23.270Z,7.44
2019-05-09T01:25:21.489Z,7.45
2019-05-09T01:26:23.896Z,7.39
2019-05-09T01:27:23.340Z,7.36
2019-05-09T01:28:23.238Z,7.27
2019-05-09T01:29:23.038Z,7.23
2019-05-09T01:30:23.913Z,7.25
2019-05-09T01:31:23.777Z,7.17
2019-05-09T01:32:23.708Z,7.24
2019-05-09T01:33:21.683Z,7.18
2019-05-09T01:34:23.792Z,7.16
2019-05-09T01:35:23.300Z,7.09
2019-05-09T01:36:23.483Z,7.06
2019-05-09T01:37:23.731Z,7.08
2019-05-09T01:38:23.205Z,7.14
2019-05-09T01:39:21.595Z,7.13
2019-05-09T01:40:23.874Z,7.05
2019-05-09T01:41:29.802Z,6.97
2019-05-09T01:42:23.314Z,6.92
2019-05-09T01:43:21.624Z,6.96
2019-05-09T01:44:23.823Z,7.02
2019-05-09T01:45:23.552Z,6.99
2019-05-09T01:46:23.580Z,7.09
2019-05-09T01:47:23.524Z,7.15
2019-05-09T01:48:23.429Z,7.16
2019-05-09T01:49:23.244Z,7.13
2019-05-09T01:50:23.344Z,7.23
2019-05-09T01:51:23.334Z,7.20
2019-05-09T01:52:23.143Z,7.18
2019-05-09T01:53:23.808Z,7.12
2019-05-09T01:54:23.630Z,7.05
2019-05-09T01:55:23.419Z,7.11
2019-05-09T01:56:23.484Z,7.32
2019-05-09T01:57:23.226Z,7.24
2019-05-09T01:58:23.272Z,7.32
2019-05-09T01:59:21.642Z,7.23
2019-05-09T02:00:23.760Z,7.07
2019-05-09T02:01:23.977Z,7.01
2019-05-09T02:02:23.519Z,7.15
2019-05-09T02:03:23.346Z,7.16
2019-05-09T02:04:24.072Z,7.17
2019-05-09T02:05:23.945Z,7.10
2019-05-09T02:06:24.118Z,7.08
2019-05-09T02:07:23.661Z,7.09
2019-05-09T02:08:23.618Z,7.11
2019-05-09T02:09:23.464Z,7.15
2019-05-09T02:10:23.242Z,7.06
2019-05-09T02:11:23.631Z,7.00
2019-05-09T02:12:21.867Z,7.02
2019-05-09T02:13:23.133Z,7.06
2019-05-09T02:14:23.875Z,7.05
2019-05-09T02:15:23.602Z,7.07
2019-05-09T02:16:23.457Z,7.02
2019-05-09T02:17:23.239Z,7.02
2019-05-09T02:18:23.082Z,6.97
2019-05-09T02:19:23.991Z,6.86
2019-05-09T02:20:24.053Z,6.78
2019-05-09T02:21:23.837Z,6.71
2019-05-09T02:22:23.574Z,6.65
2019-05-09T02:23:23.327Z,6.58
2019-05-09T02:24:23.437Z,6.50
2019-05-09T02:25:24.067Z,6.50
2019-05-09T02:26:23.867Z,6.50
2019-05-09T02:27:23.738Z,6.53
2019-05-09T02:28:23.478Z,6.63
2019-05-09T02:29:23.184Z,6.84
2019-05-09T02:30:25.086Z,6.91
2019-05-09T02:31:24.323Z,6.94
2019-05-09T02:32:23.999Z,7.04
2019-05-09T02:33:24.822Z,7.05
2019-05-09T02:34:24.530Z,7.07
2019-05-09T02:35:21.747Z,7.06
2019-05-09T02:36:21.837Z,7.13
2019-05-09T02:37:21.799Z,7.14
2019-05-09T02:38:21.740Z,7.10
2019-05-09T02:39:21.689Z,7.04
2019-05-09T02:40:21.726Z,7.00
2019-05-09T02:41:21.608Z,6.91
2019-05-09T02:42:21.740Z,6.87
2019-05-09T02:43:21.640Z,6.84
2019-05-09T02:44:21.821Z,6.77
2019-05-09T02:45:21.624Z,6.73
2019-05-09T02:46:21.782Z,6.67
2019-05-09T02:47:21.888Z,6.68
2019-05-09T02:48:21.715Z,6.69
2019-05-09T02:49:21.654Z,6.65
2019-05-09T02:50:21.786Z,6.61
2019-05-09T02:51:21.784Z,6.60
2019-05-09T02:52:21.933Z,6.62
2019-05-09T02:53:21.698Z,6.56
2019-05-09T02:54:21.660Z,6.60
2019-05-09T02:55:21.694Z,6.55
2019-05-09T02:56:21.690Z,6.58
2019-05-09T02:57:29.079Z,6.64
2019-05-09T02:58:21.800Z,6.77
2019-05-09T02:59:21.732Z,6.81
2019-05-09T03:00:21.747Z,6.79
2019-05-09T03:01:21.758Z,6.70
2019-05-09T03:02:21.756Z,6.67
2019-05-09T03:03:21.687Z,6.69
2019-05-09T03:04:21.733Z,6.72
2019-05-09T03:05:21.800Z,6.80
2019-05-09T03:06:21.889Z,6.84
2019-05-09T03:07:21.737Z,6.88
2019-05-09T03:08:21.920Z,6.85
2019-05-09T03:09:21.685Z,6.85
2019-05-09T03:10:21.749Z,6.90
2019-05-09T03:11:21.665Z,6.94
2019-05-09T03:12:30.835Z,6.97
2019-05-09T03:13:21.647Z,7.15
2019-05-09T03:14:21.755Z,7.11
2019-05-09T03:15:21.599Z,7.13
2019-05-09T03:16:21.765Z,7.10
2019-05-09T03:17:21.696Z,7.13
2019-05-09T03:18:21.783Z,7.11
2019-05-09T03:19:21.858Z,7.04
2019-05-09T03:20:21.860Z,6.98
2019-05-09T03:21:21.713Z,7.31
2019-05-09T03:22:21.697Z,7.49
2019-05-09T03:23:21.701Z,7.46
2019-05-09T03:24:21.782Z,7.34
2019-05-09T03:25:21.717Z,7.25
2019-05-09T03:26:21.735Z,7.13
2019-05-09T03:27:21.757Z,7.07
2019-05-09T03:28:21.746Z,7.15
2019-05-09T03:29:21.613Z,7.12
2019-05-09T03:30:21.842Z,7.07
2019-05-09T03:31:21.766Z,7.07
2019-05-09T03:32:21.856Z,7.07
2019-05-09T03:33:21.779Z,7.02
2019-05-09T03:34:21.768Z,6.97
2019-05-09T03:35:21.707Z,6.96
2019-05-09T03:36:21.766Z,7.00
2019-05-09T03:37:21.841Z,7.04
2019-05-09T03:38:21.688Z,7.06
2019-05-09T03:39:21.748Z,7.04
2019-05-09T03:40:21.737Z,6.99
2019-05-09T03:41:21.951Z,6.94
2019-05-09T03:42:36.489Z,6.93
2019-05-09T03:43:21.756Z,6.86
2019-05-09T03:44:21.757Z,6.81
2019-05-09T03:45:21.768Z,6.76
2019-05-09T03:46:21.759Z,6.75
2019-05-09T03:47:21.798Z,6.66
2019-05-09T03:48:21.722Z,6.62
2019-05-09T03:49:21.817Z,6.62
2019-05-09T03:50:21.806Z,6.60
2019-05-09T03:51:21.830Z,6.57
2019-05-09T03:52:21.952Z,6.54
2019-05-09T03:53:21.765Z,6.48
2019-05-09T03:54:21.701Z,6.51
2019-05-09T03:55:21.660Z,6.65
2019-05-09T03:56:21.735Z,6.59
2019-05-09T03:57:21.775Z,6.55
2019-05-09T03:58:21.774Z,6.54
2019-05-09T03:59:21.802Z,6.64
2019-05-09T04:00:21.728Z,6.70
2019-05-09T04:01:21.775Z,6.73
2019-05-09T04:02:21.812Z,6.69
2019-05-09T04:03:21.892Z,6.63
2019-05-09T04:04:21.820Z,6.59
2019-05-09T04:05:21.816Z,6.55
2019-05-09T04:06:21.675Z,6.53
2019-05-09T04:07:21.777Z,6.65
2019-05-09T04:08:21.716Z,6.63
2019-05-09T04:09:21.833Z,6.59
2019-05-09T04:10:21.826Z,6.51
2019-05-09T04:11:21.719Z,6.51
2019-05-09T04:12:21.763Z,6.50
2019-05-09T04:13:21.906Z,6.46
2019-05-09T04:14:21.895Z,6.47
2019-05-09T04:15:21.799Z,6.41
2019-05-09T04:16:21.720Z,6.37
2019-05-09T04:17:21.848Z,6.34
2019-05-09T04:18:21.785Z,6.30
2019-05-09T04:19:21.769Z,6.26
2019-05-09T04:20:21.711Z,6.21
2019-05-09T04:21:21.754Z,6.20
2019-05-09T04:22:21.794Z,6.13
2019-05-09T04:23:21.832Z,6.07
2019-05-09T04:24:21.768Z,6.01
2019-05-09T04:25:21.867Z,6.00
2019-05-09T04:26:21.906Z,6.00
2019-05-09T04:27:21.804Z,6.03
2019-05-09T04:28:21.816Z,6.02
2019-05-09T04:29:21.813Z,6.09
2019-05-09T04:30:21.794Z,6.15
2019-05-09T04:31:21.823Z,6.29
2019-05-09T04:32:21.895Z,6.38
2019-05-09T04:33:21.671Z,6.56
2019-05-09T04:34:21.817Z,6.63
2019-05-09T04:35:21.717Z,6.72
2019-05-09T04:36:21.971Z,6.87
2019-05-09T04:37:21.871Z,7.02
2019-05-09T04:38:21.770Z,7.13
2019-05-09T04:39:23.695Z,7.21
2019-05-09T04:40:21.793Z,7.26
2019-05-09T04:41:23.994Z,7.29
2019-05-09T04:42:21.811Z,7.32
2019-05-09T04:43:27.183Z,7.34
2019-05-09T04:44:21.970Z,7.49
2019-05-09T04:45:21.830Z,7.69
2019-05-09T05:02:32.286Z,7.63
2019-05-09T05:03:29.018Z,7.69
2019-05-09T05:04:29.179Z,7.81
2019-05-09T05:05:29.019Z,7.82
2019-05-09T05:06:28.979Z,7.88
2019-05-09T05:07:29.020Z,7.91
2019-05-09T05:08:29.138Z,7.97
2019-05-09T05:09:28.940Z,8.02
2019-05-09T05:10:29.004Z,8.04
2019-05-09T05:11:28.971Z,8.03
2019-05-09T05:12:29.293Z,8.02
2019-05-09T05:13:29.693Z,8.02
2019-05-09T05:14:29.122Z,7.94
2019-05-09T05:15:29.125Z,7.96
2019-05-09T05:16:29.036Z,7.86
2019-05-09T05:17:30.765Z,7.96
2019-05-09T05:18:29.055Z,8.02
2019-05-09T05:19:31.403Z,8.09
2019-05-09T05:20:29.115Z,8.06
2019-05-09T05:21:29.626Z,8.16
2019-05-09T05:22:29.126Z,8.23
2019-05-09T05:23:29.309Z,8.37
2019-05-09T05:24:28.969Z,8.51
2019-05-09T05:25:29.202Z,8.48
2019-05-09T05:26:28.979Z,8.48
2019-05-09T05:27:29.219Z,8.50
2019-05-09T05:28:29.110Z,8.53
2019-05-09T05:29:29.080Z,8.53
2019-05-09T05:30:29.008Z,8.48
2019-05-09T05:31:29.241Z,8.46
2019-05-09T05:32:29.025Z,8.47
2019-05-09T05:33:29.216Z,8.52
2019-05-09T05:34:29.110Z,8.42
2019-05-09T05:35:29.097Z,8.34
2019-05-09T05:36:29.081Z,8.33
2019-05-09T05:37:29.098Z,8.35
2019-05-09T05:38:29.335Z,8.23
2019-05-09T05:39:29.076Z,8.33
2019-05-09T05:40:33.336Z,8.45
2019-05-09T05:41:29.085Z,8.50
2019-05-09T05:42:29.222Z,8.53
2019-05-09T05:43:43.308Z,8.50
2019-05-09T05:44:29.314Z,8.68
2019-05-09T05:45:29.119Z,8.85
2019-05-09T05:46:29.232Z,8.86
2019-05-09T05:47:29.433Z,8.90
2019-05-09T05:48:29.742Z,8.94
2019-05-09T05:49:29.224Z,8.83
2019-05-09T05:50:29.212Z,8.67
2019-05-09T05:51:29.181Z,8.64
2019-05-09T05:52:29.113Z,8.71
2019-05-09T05:53:28.955Z,8.70
2019-05-09T05:54:29.155Z,8.78
2019-05-09T05:55:29.586Z,8.67
2019-05-09T05:56:29.142Z,8.59
2019-05-09T05:57:29.275Z,8.52
2019-05-09T05:58:29.162Z,8.54
2019-05-09T05:59:29.196Z,8.57
2019-05-09T06:00:29.035Z,8.59
2019-05-09T06:01:29.134Z,8.58
2019-05-09T06:02:29.149Z,8.56
2019-05-09T06:03:30.146Z,8.56
2019-05-09T06:04:29.222Z,8.63
2019-05-09T06:05:30.126Z,8.65
2019-05-09T06:06:29.294Z,8.64
2019-05-09T06:07:29.116Z,8.42
2019-05-09T06:08:29.091Z,8.31
2019-05-09T06:09:29.168Z,8.43
2019-05-09T06:10:29.201Z,8.52
2019-05-09T06:11:29.111Z,8.56
2019-05-09T06:12:29.221Z,8.55
2019-05-09T06:13:29.025Z,8.57
2019-05-09T06:14:29.431Z,8.66
2019-05-09T06:15:29.183Z,8.63
2019-05-09T06:16:29.094Z,8.56
2019-05-09T06:17:29.258Z,8.56
2019-05-09T06:18:29.052Z,8.63
2019-05-09T06:19:29.202Z,8.78
2019-05-09T06:20:29.161Z,8.89
2019-05-09T06:21:29.221Z,8.97
2019-05-09T06:22:29.173Z,9.04
2019-05-09T06:23:29.110Z,9.11
2019-05-09T06:24:29.311Z,9.23
2019-05-09T06:25:30.541Z,9.25
2019-05-09T06:26:29.496Z,9.20
2019-05-09T06:27:30.170Z,9.24
2019-05-09T06:28:29.399Z,9.22
2019-05-09T06:29:29.153Z,9.28
2019-05-09T06:30:29.293Z,9.16
2019-05-09T06:31:29.318Z,9.08
2019-05-09T06:32:29.094Z,8.99
2019-05-09T06:33:29.177Z,8.93
2019-05-09T06:34:29.667Z,8.89
2019-05-09T06:35:29.225Z,8.94
2019-05-09T06:36:29.093Z,8.98
2019-05-09T06:37:29.211Z,9.01
2019-05-09T06:38:29.142Z,9.09
2019-05-09T06:39:29.472Z,9.12
2019-05-09T06:40:29.146Z,9.18
2019-05-09T06:41:29.245Z,9.20
2019-05-09T06:42:29.600Z,9.22
2019-05-09T06:43:29.359Z,9.23
2019-05-09T06:44:29.195Z,9.20
2019-05-09T06:45:29.255Z,9.27
2019-05-09T06:46:29.165Z,9.28
2019-05-09T06:47:29.324Z,9.36
2019-05-09T06:48:29.089Z,9.42
2019-05-09T06:49:31.883Z,9.49
2019-05-09T06:50:29.196Z,9.52
2019-05-09T06:51:29.240Z,9.44
2019-05-09T06:52:29.113Z,9.35
2019-05-09T06:53:29.231Z,9.27
2019-05-09T06:54:29.157Z,9.23
2019-05-09T06:55:29.744Z,9.20
2019-05-09T06:56:29.117Z,9.21
2019-05-09T06:57:29.164Z,9.29
2019-05-09T06:58:29.161Z,9.33
2019-05-09T06:59:29.202Z,9.41
2019-05-09T07:00:29.298Z,9.50
2019-05-09T07:01:29.264Z,9.51
2019-05-09T07:02:29.137Z,9.48
2019-05-09T07:03:29.180Z,9.54
2019-05-09T07:04:29.252Z,9.64
2019-05-09T07:05:29.300Z,9.78
2019-05-09T07:06:29.203Z,9.79
2019-05-09T07:07:29.218Z,9.76
2019-05-09T07:08:31.405Z,9.93
2019-05-09T07:09:29.327Z,10.09
2019-05-09T07:10:29.150Z,10.28
2019-05-09T07:11:29.276Z,10.38
2019-05-09T07:12:29.348Z,10.47
2019-05-09T07:13:29.777Z,10.29
2019-05-09T07:14:32.641Z,10.32
2019-05-09T07:15:29.203Z,10.06
2019-05-09T07:16:29.194Z,10.06
2019-05-09T07:17:31.930Z,10.18
2019-05-09T07:18:29.202Z,10.36
2019-05-09T07:19:29.288Z,10.47
2019-05-09T07:20:29.192Z,10.55
2019-05-09T07:21:29.305Z,10.66
2019-05-09T07:22:29.364Z,10.67
2019-05-09T07:23:29.414Z,10.62
2019-05-09T07:24:29.226Z,10.70
2019-05-09T07:25:29.650Z,10.66
2019-05-09T07:26:29.139Z,10.62
2019-05-09T07:27:29.151Z,10.53
2019-05-09T07:28:29.165Z,10.50
2019-05-09T07:29:29.294Z,10.46
2019-05-09T07:30:29.214Z,10.27
2019-05-09T07:31:29.343Z,10.18
2019-05-09T07:32:29.273Z,10.15
2019-05-09T07:33:29.263Z,9.99
2019-05-09T07:34:29.403Z,9.80
2019-05-09T07:35:29.148Z,9.85
2019-05-09T07:36:29.203Z,9.87
2019-05-09T07:37:29.301Z,9.71
2019-05-09T07:38:29.283Z,9.66
2019-05-09T07:39:29.272Z,9.81
2019-05-09T07:40:30.703Z,9.98
2019-05-09T07:41:29.187Z,9.86
2019-05-09T07:42:29.230Z,9.82
2019-05-09T07:43:31.448Z,9.97
2019-05-09T07:44:44.232Z,9.99
2019-05-09T07:45:29.292Z,9.85
2019-05-09T07:46:29.142Z,9.68
2019-05-09T07:47:29.389Z,9.74
2019-05-09T07:48:29.237Z,9.86
2019-05-09T07:49:29.306Z,9.76
2019-05-09T07:50:29.292Z,9.70
2019-05-09T07:51:29.262Z,9.75
2019-05-09T07:52:29.228Z,9.69
2019-05-09T07:53:30.103Z,9.73
2019-05-09T07:54:31.528Z,9.64
2019-05-09T07:55:29.306Z,9.55
2019-05-09T07:56:29.284Z,9.51
2019-05-09T07:57:29.297Z,9.58
2019-05-09T07:58:29.205Z,9.58
2019-05-09T07:59:29.530Z,9.67
2019-05-09T08:00:29.216Z,9.78
2019-05-09T08:01:29.288Z,9.80
2019-05-09T08:02:29.269Z,9.73
2019-05-09T08:03:29.309Z,9.74
2019-05-09T08:04:29.387Z,9.74
2019-05-09T08:05:29.388Z,9.73
2019-05-09T08:06:29.425Z,9.84
2019-05-09T08:07:29.390Z,9.91
2019-05-09T08:08:29.313Z,9.86
2019-05-09T08:09:29.367Z,9.88
2019-05-09T08:10:32.928Z,9.97
2019-05-09T08:11:32.210Z,9.87
2019-05-09T08:12:29.213Z,9.97
2019-05-09T08:13:29.255Z,10.08
2019-05-09T08:14:29.399Z,10.18
2019-05-09T08:15:29.228Z,10.31
2019-05-09T08:16:29.225Z,10.37
2019-05-09T08:17:29.294Z,10.30
2019-05-09T08:18:29.504Z,10.28
2019-05-09T08:19:29.230Z,10.43
2019-05-09T08:20:29.383Z,10.27
2019-05-09T08:21:29.305Z,10.34
2019-05-09T08:22:32.251Z,10.42
2019-05-09T08:23:29.449Z,10.44
2019-05-09T08:24:29.540Z,10.32
2019-05-09T08:25:29.593Z,10.42
2019-05-09T08:26:29.975Z,10.32
2019-05-09T08:27:30.374Z,10.34
2019-05-09T08:28:29.309Z,10.45
2019-05-09T08:29:29.387Z,10.61
2019-05-09T08:30:35.493Z,10.72
2019-05-09T08:31:29.301Z,10.59
2019-05-09T08:32:29.311Z,10.79
2019-05-09T08:33:29.419Z,10.97
2019-05-09T08:34:29.320Z,10.81
2019-05-09T08:35:29.293Z,10.69
2019-05-09T08:36:29.369Z,10.68
2019-05-09T08:37:29.416Z,10.73
2019-05-09T08:38:29.522Z,10.85
2019-05-09T08:39:29.379Z,10.84
2019-05-09T08:40:29.312Z,10.86
2019-05-09T08:41:29.534Z,10.84
2019-05-09T08:42:29.438Z,10.88
2019-05-09T08:43:29.307Z,11.06
2019-05-09T08:44:31.149Z,11.20
2019-05-09T08:45:31.438Z,11.35
2019-05-09T08:46:29.508Z,11.44
2019-05-09T08:47:29.337Z,11.61
2019-05-09T08:48:29.261Z,11.49
2019-05-09T08:49:29.306Z,11.52
2019-05-09T08:50:29.458Z,11.56
2019-05-09T08:51:36.818Z,11.72
2019-05-09T08:52:29.253Z,11.54
2019-05-09T08:53:29.428Z,11.59
2019-05-09T08:54:29.293Z,11.54
2019-05-09T08:55:29.493Z,11.70
2019-05-09T08:56:29.406Z,11.42
2019-05-09T08:57:29.614Z,11.95
2019-05-09T08:58:29.325Z,12.10
2019-05-09T08:59:29.401Z,12.42
2019-05-09T09:00:29.245Z,11.96
2019-05-09T09:01:47.863Z,12.15
2019-05-09T09:02:29.382Z,12.25
2019-05-09T09:03:29.270Z,12.39
2019-05-09T09:04:29.513Z,12.53
2019-05-09T09:05:29.266Z,12.63
2019-05-09T09:06:29.412Z,12.47
2019-05-09T09:07:29.878Z,12.38
2019-05-09T09:08:29.341Z,12.64
2019-05-09T09:09:29.369Z,12.67
2019-05-09T09:10:29.330Z,12.22
2019-05-09T09:11:29.493Z,11.90
2019-05-09T09:12:34.212Z,11.84
2019-05-09T09:13:29.690Z,11.92
2019-05-09T09:14:29.449Z,11.92
2019-05-09T09:15:55.894Z,12.12
2019-05-09T09:16:29.351Z,12.20
2019-05-09T09:17:29.529Z,12.45
2019-05-09T09:18:29.460Z,12.51
2019-05-09T09:19:29.389Z,12.69
2019-05-09T09:20:29.302Z,12.54
2019-05-09T09:21:29.380Z,12.90
2019-05-09T09:22:29.382Z,13.33
2019-05-09T09:23:42.803Z,13.32
2019-05-09T09:24:29.495Z,13.70
2019-05-09T09:25:29.248Z,13.35
2019-05-09T09:26:29.836Z,12.81
2019-05-09T09:27:29.397Z,12.98
2019-05-09T09:28:29.392Z,12.64
2019-05-09T09:29:29.505Z,12.76
2019-05-09T09:30:29.648Z,12.71
2019-05-09T09:31:29.336Z,12.58
2019-05-09T09:32:29.411Z,12.54
2019-05-09T09:33:29.311Z,12.56
2019-05-09T09:34:30.042Z,12.70
2019-05-09T09:35:29.436Z,12.47
2019-05-09T09:36:29.226Z,12.46
2019-05-09T09:37:44.716Z,12.31
2019-05-09T09:38:29.421Z,12.51
2019-05-09T09:39:31.252Z,12.91
2019-05-09T09:40:29.651Z,13.15
2019-05-09T09:41:29.409Z,13.06
2019-05-09T09:42:29.433Z,13.09
2019-05-09T09:43:29.408Z,13.07
2019-05-09T09:44:29.487Z,13.15
2019-05-09T09:45:29.553Z,13.00
2019-05-09T09:46:29.685Z,13.16
2019-05-09T09:47:29.323Z,13.12
2019-05-09T09:48:29.638Z,12.99
2019-05-09T09:49:29.661Z,12.81
2019-05-09T09:50:29.350Z,13.45
2019-05-09T09:51:29.468Z,13.55
2019-05-09T09:52:32.107Z,13.50
2019-05-09T09:53:29.400Z,13.23
2019-05-09T09:54:29.397Z,13.23
2019-05-09T09:55:29.499Z,13.33
2019-05-09T09:56:29.507Z,13.53
2019-05-09T09:57:29.970Z,13.69
2019-05-09T09:58:29.459Z,13.55
2019-05-09T09:59:29.474Z,13.59
2019-05-09T10:00:29.414Z,13.29
2019-05-09T10:01:29.574Z,13.89
2019-05-09T10:02:29.333Z,14.20
2019-05-09T10:03:29.353Z,14.53
2019-05-09T10:04:29.720Z,14.18
2019-05-09T10:05:29.345Z,13.77
2019-05-09T10:06:29.431Z,13.71
2019-05-09T10:07:29.368Z,13.86
2019-05-09T10:08:29.492Z,14.37
2019-05-09T10:09:29.625Z,14.36
2019-05-09T10:10:29.397Z,14.53
2019-05-09T10:11:29.555Z,14.08
2019-05-09T10:12:29.577Z,14.10
2019-05-09T10:13:29.406Z,14.23
2019-05-09T10:14:29.497Z,14.29
2019-05-09T10:15:29.444Z,14.00
2019-05-09T10:16:32.709Z,14.23
2019-05-09T10:17:29.595Z,14.27
2019-05-09T10:18:29.420Z,14.34
2019-05-09T10:19:29.731Z,14.43
2019-05-09T10:20:29.396Z,14.00
2019-05-09T10:21:29.426Z,14.06
2019-05-09T10:22:29.418Z,14.20
2019-05-09T10:23:29.596Z,14.26
2019-05-09T10:24:29.499Z,14.08
2019-05-09T10:25:29.413Z,14.07
2019-05-09T10:26:29.442Z,14.02
2019-05-09T10:27:29.410Z,14.17
2019-05-09T10:28:30.200Z,14.40
2019-05-09T10:29:29.633Z,14.78
2019-05-09T10:30:31.930Z,14.67
2019-05-09T10:31:29.373Z,14.77
2019-05-09T10:32:29.484Z,14.57
2019-05-09T10:33:29.466Z,14.58
2019-05-09T10:34:29.563Z,14.04
2019-05-09T10:35:29.391Z,14.32
2019-05-09T10:36:29.439Z,14.57
2019-05-09T10:37:29.500Z,14.59
2019-05-09T10:38:29.444Z,14.31
2019-05-09T10:39:29.469Z,14.41
2019-05-09T10:40:29.488Z,14.73
2019-05-09T10:41:29.541Z,14.40
2019-05-09T10:42:29.329Z,14.37
2019-05-09T10:43:35.587Z,14.43
2019-05-09T10:44:29.520Z,14.52
2019-05-09T10:45:29.451Z,14.28
2019-05-09T10:46:47.561Z,14.56
2019-05-09T10:47:29.461Z,14.72
2019-05-09T10:48:29.524Z,14.86
2019-05-09T10:49:29.580Z,14.69
2019-05-09T10:50:34.178Z,14.38
2019-05-09T10:51:29.551Z,14.65
2019-05-09T10:52:29.513Z,14.47
2019-05-09T10:53:31.510Z,14.65
2019-05-09T10:54:29.487Z,15.11
2019-05-09T10:55:29.599Z,15.31
2019-05-09T10:56:29.714Z,15.26
2019-05-09T10:57:31.472Z,15.42
2019-05-09T10:58:29.570Z,15.32
2019-05-09T10:59:29.668Z,15.15
2019-05-09T11:00:29.479Z,15.19
2019-05-09T11:01:29.773Z,15.33
2019-05-09T11:02:29.495Z,15.12
2019-05-09T11:03:29.675Z,14.97
2019-05-09T11:04:29.548Z,14.89
2019-05-09T11:05:29.590Z,15.29
2019-05-09T11:06:29.588Z,15.07
2019-05-09T11:07:29.440Z,15.14
2019-05-09T11:08:30.778Z,15.01
2019-05-09T11:09:29.550Z,15.18
2019-05-09T11:10:32.558Z,15.09
2019-05-09T11:11:29.627Z,14.81
2019-05-09T11:12:29.512Z,14.93
2019-05-09T11:13:29.599Z,15.01
2019-05-09T11:14:36.926Z,14.83
2019-05-09T11:15:29.533Z,15.01
2019-05-09T11:16:41.957Z,15.24
2019-05-09T11:17:29.589Z,15.13
2019-05-09T11:18:29.486Z,14.97
2019-05-09T11:19:30.109Z,14.93
2019-05-09T11:20:29.682Z,14.94
2019-05-09T11:21:29.570Z,14.60
2019-05-09T11:22:29.509Z,14.63
2019-05-09T11:23:29.525Z,14.42
2019-05-09T11:24:41.077Z,14.20
2019-05-09T11:25:29.638Z,14.03
2019-05-09T11:26:29.485Z,14.10
2019-05-09T11:27:29.518Z,14.07
2019-05-09T11:28:29.500Z,13.90
2019-05-09T11:29:29.603Z,13.92
2019-05-09T11:30:29.507Z,13.97
2019-05-09T11:31:29.825Z,13.91
2019-05-09T11:32:29.682Z,13.95
2019-05-09T11:33:29.803Z,14.11
2019-05-09T11:34:29.612Z,13.57
2019-05-09T11:35:29.573Z,14.00
2019-05-09T11:36:29.698Z,14.07
2019-05-09T11:37:29.462Z,13.96
2019-05-09T11:38:36.089Z,14.15
2019-05-09T11:39:36.555Z,14.14
2019-05-09T11:40:29.471Z,14.04
2019-05-09T11:41:30.247Z,14.16
2019-05-09T11:42:33.287Z,14.18
2019-05-09T11:43:29.859Z,14.35
2019-05-09T11:44:29.623Z,14.65
2019-05-09T11:45:29.513Z,15.06
2019-05-09T11:46:29.524Z,14.99
2019-05-09T11:47:38.137Z,14.83
2019-05-09T11:48:29.611Z,14.76
2019-05-09T11:49:29.678Z,15.14
2019-05-09T11:50:29.976Z,14.85
2019-05-09T11:51:29.601Z,15.31
2019-05-09T11:52:30.527Z,15.24
2019-05-09T11:53:29.582Z,15.16
2019-05-09T11:54:29.637Z,15.02
2019-05-09T11:55:35.637Z,15.08
2019-05-09T11:56:29.524Z,15.75
2019-05-09T11:57:31.577Z,15.55
2019-05-09T11:58:29.623Z,15.76
2019-05-09T11:59:29.615Z,15.60
2019-05-09T12:00:30.153Z,15.46
2019-05-09T12:01:29.558Z,15.12
2019-05-09T12:02:29.823Z,15.59
2019-05-09T12:03:30.600Z,15.39
2019-05-09T12:04:29.644Z,14.95
2019-05-09T12:05:29.579Z,15.02
2019-05-09T12:06:29.559Z,15.05
2019-05-09T12:07:29.880Z,14.82
2019-05-09T12:08:29.609Z,15.02
2019-05-09T12:09:29.680Z,15.11
2019-05-09T12:10:29.637Z,14.91
2019-05-09T12:11:29.663Z,15.43
2019-05-09T12:12:29.654Z,14.90
2019-05-09T12:13:29.511Z,15.37
2019-05-09T12:14:29.622Z,14.99
2019-05-09T12:15:29.555Z,14.78
2019-05-09T12:16:29.699Z,14.98
2019-05-09T12:17:48.226Z,14.73
2019-05-09T12:18:29.590Z,14.97
2019-05-09T12:19:29.734Z,15.06
2019-05-09T12:20:30.954Z,15.23
2019-05-09T12:21:29.484Z,14.88
2019-05-09T12:22:29.586Z,15.22
2019-05-09T12:23:29.627Z,15.18
2019-05-09T12:24:29.773Z,15.32
2019-05-09T12:25:29.675Z,15.18
2019-05-09T12:26:29.663Z,15.09
2019-05-09T12:27:29.843Z,15.08
2019-05-09T12:28:29.573Z,15.39
2019-05-09T12:29:29.737Z,15.37
2019-05-09T12:30:29.652Z,15.86
2019-05-09T12:31:30.380Z,15.91
2019-05-09T12:32:29.681Z,15.62
2019-05-09T12:33:33.103Z,15.77
2019-05-09T12:34:29.794Z,15.43
2019-05-09T12:35:29.694Z,15.41
2019-05-09T12:36:29.755Z,15.30
2019-05-09T12:37:29.805Z,15.11
2019-05-09T12:38:29.635Z,15.07
2019-05-09T12:39:29.848Z,14.93
2019-05-09T12:40:29.751Z,15.14
2019-05-09T12:41:31.501Z,15.31
2019-05-09T12:42:29.927Z,15.51
2019-05-09T12:43:29.668Z,14.98
2019-05-09T12:44:30.935Z,15.49
2019-05-09T12:45:29.735Z,15.66
2019-05-09T12:46:29.689Z,15.79
2019-05-09T12:47:29.735Z,16.17
2019-05-09T12:48:29.731Z,15.90
2019-05-09T12:49:29.726Z,15.55
2019-05-09T12:50:29.885Z,15.63
2019-05-09T12:51:29.743Z,15.71
2019-05-09T12:52:29.758Z,16.26
2019-05-09T12:53:29.812Z,16.10
2019-05-09T12:54:29.683Z,16.21
2019-05-09T12:55:29.650Z,15.58
2019-05-09T12:56:29.706Z,15.18
2019-05-09T12:57:29.717Z,14.95
2019-05-09T12:58:29.797Z,14.93
2019-05-09T12:59:44.557Z,15.20
2019-05-09T13:00:29.831Z,15.65
2019-05-09T13:01:29.871Z,15.41
2019-05-09T13:02:29.856Z,15.61
2019-05-09T13:03:29.851Z,15.40
2019-05-09T13:04:30.061Z,15.56
2019-05-09T13:05:29.675Z,14.79
2019-05-09T13:06:29.968Z,14.99
2019-05-09T13:07:29.949Z,15.12
2019-05-09T13:08:29.683Z,15.64
2019-05-09T13:09:29.815Z,15.14
2019-05-09T13:10:29.658Z,14.75
2019-05-09T13:11:29.794Z,14.49
2019-05-09T13:12:29.832Z,14.99
2019-05-09T13:13:32.190Z,15.72
2019-05-09T13:14:29.715Z,15.73
2019-05-09T13:15:31.163Z,15.20
2019-05-09T13:16:44.296Z,15.69
2019-05-09T13:17:29.738Z,15.06
2019-05-09T13:18:29.855Z,15.06
2019-05-09T13:19:29.728Z,15.26
2019-05-09T13:20:29.777Z,15.69
2019-05-09T13:21:32.941Z,15.44
2019-05-09T13:22:29.783Z,15.60
2019-05-09T13:23:30.505Z,15.26